Mentions Légales.

Éditeur

Ce site web est édité par : Fly and Fun
Siège : Aérodrome de Reims-Prunay 51360 Prunay, Champagne-Ardenne,  France
Port. : 06 76 27 56 83
Contact

Crédits

Design et réalisation : Cochet Concept
Photos : Fly and Fun

Droits de reproduction

Les informations présentées sur ce site sont publiques. La reproduction des informations de ce site, à l’exception de l’iconographie, est autorisée à la condition d’en mentionner la source et de créer un lien sur la ou les pages de référence. Les informations de ce site ne peuvent en aucun cas être utilisées à des fins commerciales ou publicitaires.

Données personnelles

Lorsque des données présentes sur ce site ont un caractère nominatif, les utilisateurs doivent en faire un usage conforme aux réglementations en vigueur et aux recommandations de la Commission nationale de l’informatique et des libertés (CNIL). Les informations utilisées ne doivent l’être qu’à des fins personnelles, associatives ou professionnelles, toute diffusion ou utilisation à des fins commerciales ou publicitaires étant exclues.

Consommation d’alcool

L’abus d’alcool est dangereux pour la santé, consommez avec modération.

METAR :

LFQA 222130Z AUTO VRB02KT CAVOK 15/10 Q1025


vue en direct sur l'aérodrome
mentions légales politique de confidentialité
Cochet Concept
cx